Time;durP1;ratioP1;P1;durP2;ratioP2;P2;SDS_P1;SDS_P2;PMS_P1;PMS_P2;Temp;Humidity;BMP_temperature;BMP_pressure;BME280_temperature;BME280_humidity;BME280_pressure;Samples;Min_cycle;Max_cycle;Signal;HPM_P1;HPM_P2
2022/09/27 00:01:23;;;;;;;8.78;6.97;;;;;;;13.29;100.00;98212.05;1734574;81;21150;-65
2022/09/27 00:03:59;;;;;;;8.03;6.47;;;;;;;13.29;100.00;98212.05;1732808;82;21497;-64
2022/09/27 00:06:30;;;;;;;8.18;7.33;;;;;;;13.28;100.00;98210.39;1729942;82;20973;-65
2022/09/27 00:08:59;;;;;;;7.75;6.92;;;;;;;13.24;100.00;98213.69;1734511;81;21152;-65
2022/09/27 00:11:33;;;;;;;12.75;6.87;;;;;;;13.22;100.00;98208.20;1735383;81;21018;-65
2022/09/27 00:14:00;;;;;;;8.85;7.95;;;;;;;13.16;100.00;98206.90;1735226;81;20998;-65
2022/09/27 00:16:31;;;;;;;8.95;7.22;;;;;;;13.11;100.00;98208.49;1730414;81;21018;-65
2022/09/27 00:18:59;;;;;;;8.43;7.65;;;;;;;13.10;100.00;98203.38;1728491;81;20957;-65
2022/09/27 00:21:27;;;;;;;8.13;7.05;;;;;;;13.07;100.00;98204.42;1732295;82;21765;-65
2022/09/27 00:23:54;;;;;;;7.92;6.62;;;;;;;13.09;100.00;98208.23;1731912;82;20990;-66
2022/09/27 00:26:21;;;;;;;8.25;7.45;;;;;;;13.08;100.00;98202.18;1735571;81;21037;-65
2022/09/27 00:28:49;;;;;;;7.70;7.00;;;;;;;13.10;100.00;98208.13;1731199;82;20955;-65
2022/09/27 00:31:22;;;;;;;7.67;6.97;;;;;;;13.13;100.00;98208.38;1725506;81;21088;-65
2022/09/27 00:33:51;;;;;;;7.90;7.20;;;;;;;13.14;100.00;98202.69;1731410;81;21828;-65
2022/09/27 00:36:18;;;;;;;8.10;7.17;;;;;;;13.14;100.00;98202.22;1735625;82;21363;-66
2022/09/27 00:38:46;;;;;;;7.58;6.53;;;;;;;13.15;100.00;98199.14;1732485;82;21032;-65
2022/09/27 00:41:16;;;;;;;7.62;6.83;;;;;;;13.13;100.00;98199.25;1736470;82;21006;-65
2022/09/27 00:43:50;;;;;;;9.08;7.05;;;;;;;13.14;100.00;98193.55;1742949;81;21029;-65
2022/09/27 00:46:28;;;;;;;7.67;6.83;;;;;;;13.14;100.00;98183.95;1736186;82;21167;-65
2022/09/27 00:49:15;;;;;;;8.15;7.25;;;;;;;13.08;100.00;98178.69;1731763;81;20990;-65
2022/09/27 00:51:42;;;;;;;6.85;6.25;;;;;;;13.05;100.00;98173.69;1734978;82;21024;-64
2022/09/27 00:54:10;;;;;;;7.92;6.20;;;;;;;12.96;100.00;98167.84;1732121;82;21065;-65
2022/09/27 00:56:37;;;;;;;7.80;7.00;;;;;;;12.93;100.00;98162.83;1737257;82;21049;-64
2022/09/27 00:59:22;;;;;;;7.97;7.12;;;;;;;12.92;100.00;98155.95;1732443;82;21966;-65
2022/09/27 01:01:49;;;;;;;7.03;6.37;;;;;;;12.91;100.00;98152.97;1726776;82;21652;-64
2022/09/27 01:04:22;;;;;;;7.62;6.90;;;;;;;12.93;100.00;98147.17;1728724;82;21072;-65
2022/09/27 01:06:49;;;;;;;9.83;8.10;;;;;;;12.91;100.00;98147.75;1717667;81;21061;-65
2022/09/27 01:09:17;;;;;;;8.45;7.33;;;;;;;12.91;100.00;98147.75;1735710;82;21744;-65
2022/09/27 01:12:11;;;;;;;9.95;7.40;;;;;;;12.90;100.00;98146.55;1733564;82;21470;-66
2022/09/27 01:15:20;;;;;;;11.97;6.42;;;;;;;12.85;100.00;98148.66;1728315;81;21379;-65
2022/09/27 01:18:15;;;;;;;7.62;6.83;;;;;;;12.79;100.00;98150.42;1734121;81;20998;-65
2022/09/27 01:21:03;;;;;;;8.13;7.35;;;;;;;12.76;100.00;98144.47;1730913;81;20962;-66
2022/09/27 01:24:04;;;;;;;10.32;7.85;;;;;;;12.68;100.00;98142.03;1727580;82;21009;-65
2022/09/27 01:27:14;;;;;;;9.58;7.17;;;;;;;12.61;100.00;98137.71;1734447;82;21149;-65
2022/09/27 01:30:15;;;;;;;7.65;6.95;;;;;;;12.60;100.00;98134.73;1728401;82;21613;-65
2022/09/27 01:33:04;;;;;;;9.23;8.08;;;;;;;12.57;100.00;98131.07;1732970;82;21008;-65
2022/09/27 01:35:42;;;;;;;8.53;7.25;;;;;;;12.57;100.00;98127.63;1729512;82;21534;-65
2022/09/27 01:38:20;;;;;;;8.15;7.03;;;;;;;12.60;100.00;98124.77;1729371;82;20939;-64
2022/09/27 01:41:10;;;;;;;7.78;6.97;;;;;;;12.58;100.00;98121.47;1711082;82;21166;-65
2022/09/27 01:44:26;;;;;;;10.00;7.35;;;;;;;12.58;100.00;98122.77;1733872;82;20993;-65
2022/09/27 01:46:57;;;;;;;9.73;8.05;;;;;;;12.58;100.00;98121.00;1733185;82;21084;-64
2022/09/27 01:49:34;;;;;;;8.63;7.80;;;;;;;12.57;100.00;98114.12;1711370;82;21152;-65
2022/09/27 01:52:02;;;;;;;7.75;7.05;;;;;;;12.56;100.00;98107.23;1729438;82;20939;-65
2022/09/27 01:54:45;;;;;;;7.90;7.20;;;;;;;12.55;100.00;98101.66;1729154;81;21885;-65
2022/09/27 01:57:25;;;;;;;10.32;7.47;;;;;;;12.56;100.00;98112.45;1736437;81;20970;-65
2022/09/27 01:59:59;;;;;;;14.03;7.95;;;;;;;12.54;100.00;98109.11;1725660;81;21437;-65
2022/09/27 02:02:51;;;;;;;8.30;7.47;;;;;;;12.51;100.00;98108.49;1728662;82;21053;-65
2022/09/27 02:05:39;;;;;;;8.63;7.35;;;;;;;12.50;100.00;98110.73;1721849;82;20971;-65
2022/09/27 02:08:22;;;;;;;7.97;7.12;;;;;;;12.50;100.00;98105.52;1734617;81;21101;-64
2022/09/27 02:10:52;;;;;;;8.18;7.37;;;;;;;12.50;100.00;98108.13;1724352;81;21056;-65
2022/09/27 02:13:23;;;;;;;8.78;7.80;;;;;;;12.49;100.00;98105.16;1738892;82;20942;-65
2022/09/27 02:16:13;;;;;;;;;;;;;;;12.48;100.00;98099.58;1736467;81;21136;-66
2022/09/27 02:19:08;;;;;;;9.38;7.80;;;;;;;12.49;100.00;98091.64;1727140;82;20239;-65
2022/09/27 02:21:44;;;;;;;10.93;7.03;;;;;;;12.51;100.00;98098.89;1723525;81;21236;-65
2022/09/27 02:24:14;;;;;;;7.40;6.78;;;;;;;12.53;100.00;98094.41;1711398;82;21557;-65
2022/09/27 02:26:44;;;;;;;8.60;7.72;;;;;;;12.53;100.00;98089.19;1731038;82;21521;-67
2022/09/27 02:29:24;;;;;;;8.38;7.58;;;;;;;12.52;100.00;98082.78;1742075;82;20993;-66
2022/09/27 02:31:53;;;;;;;8.60;7.08;;;;;;;12.51;100.00;98085.02;1737624;82;21005;-65
2022/09/27 02:34:23;;;;;;;7.28;6.45;;;;;;;12.49;100.00;98092.12;1712621;82;21971;-66
2022/09/27 02:36:52;;;;;;;7.00;6.30;;;;;;;12.48;100.00;98089.98;1726959;81;21088;-65
2022/09/27 02:39:19;;;;;;;9.10;6.90;;;;;;;12.46;100.00;98080.59;1730445;81;20969;-66
2022/09/27 02:41:48;;;;;;;8.95;8.13;;;;;;;12.42;100.00;98082.11;1739875;82;21010;-66
2022/09/27 02:44:16;;;;;;;8.50;7.60;;;;;;;12.42;100.00;98082.11;1732602;82;21009;-65
2022/09/27 02:47:14;;;;;;;9.45;7.92;;;;;;;12.41;100.00;98077.00;1734761;82;22179;-65
2022/09/27 02:49:58;;;;;;;7.12;6.53;;;;;;;12.39;100.00;98079.72;1735407;82;21143;-65
2022/09/27 02:53:15;;;;;;;13.20;8.38;;;;;;;12.40;100.00;98080.08;1736478;81;21034;-65
2022/09/27 02:56:09;;;;;;;8.40;7.60;;;;;;;12.38;100.00;98072.87;1723392;81;21004;-65
2022/09/27 02:59:13;;;;;;;10.50;7.62;;;;;;;12.37;100.00;98074.28;1659762;81;20989;-65
2022/09/27 03:02:33;;;;;;;8.00;7.17;;;;;;;12.34;100.00;98071.41;1735219;81;21755;-65
2022/09/27 03:05:11;;;;;;;8.90;7.65;;;;;;;12.33;100.00;98065.83;1723049;81;21645;-64
2022/09/27 03:07:40;;;;;;;8.70;7.58;;;;;;;12.34;100.00;98065.36;1728866;82;21506;-65
2022/09/27 03:10:09;;;;;;;9.40;7.85;;;;;;;12.36;100.00;98070.00;1738107;82;20946;-65
2022/09/27 03:12:37;;;;;;;9.20;8.30;;;;;;;12.36;100.00;98062.18;1718908;82;20985;-65
2022/09/27 03:15:05;;;;;;;9.50;7.85;;;;;;;12.36;100.00;98061.71;1737242;82;21144;-65
2022/09/27 03:17:36;;;;;;;10.35;7.17;;;;;;;12.36;100.00;98064.31;1675733;82;20969;-65
2022/09/27 03:20:23;;;;;;;10.58;8.43;;;;;;;12.34;100.00;98062.75;1731191;82;21220;-65
2022/09/27 03:22:53;;;;;;;9.50;8.53;;;;;;;12.36;100.00;98060.88;1731354;82;21128;-64
2022/09/27 03:25:20;;;;;;;9.55;8.25;;;;;;;12.40;100.00;98059.22;1730553;82;21096;-65
2022/09/27 03:27:47;;;;;;;8.85;7.83;;;;;;;12.44;100.00;98059.84;1731209;81;21242;-65
2022/09/27 03:30:16;;;;;;;8.60;7.80;;;;;;;12.46;100.00;98067.09;1727095;81;20997;-65
2022/09/27 03:32:44;;;;;;;10.72;9.63;;;;;;;12.47;100.00;98055.72;1729798;82;21486;-65
2022/09/27 03:35:30;;;;;;;13.03;9.00;;;;;;;12.48;100.00;98050.86;1736329;82;21517;-65
2022/09/27 03:37:57;;;;;;;11.70;9.73;;;;;;;12.47;100.00;98040.07;1733650;82;21045;-65
2022/09/27 03:40:24;;;;;;;15.13;8.65;;;;;;;12.48;100.00;98044.81;1735243;82;22160;-65
2022/09/27 03:42:52;;;;;;;11.83;8.08;;;;;;;12.47;100.00;98049.67;1729735;81;21032;-65
2022/09/27 03:45:19;;;;;;;10.35;7.55;;;;;;;12.48;100.00;98050.03;1736874;81;21164;-65
2022/09/27 03:47:46;;;;;;;8.80;7.78;;;;;;;12.48;100.00;98048.72;1729356;81;21555;-65
2022/09/27 03:50:14;;;;;;;12.15;8.70;;;;;;;12.46;100.00;98042.31;1729124;82;20993;-65
2022/09/27 03:52:43;;;;;;;13.60;8.45;;;;;;;12.43;100.00;98043.83;1727218;82;21242;-68
2022/09/27 03:55:11;;;;;;;8.23;6.97;;;;;;;12.41;100.00;98053.06;1723445;81;21471;-68
2022/09/27 03:57:41;;;;;;;9.20;8.30;;;;;;;12.37;100.00;98061.23;1730417;81;21489;-68
2022/09/27 04:00:10;;;;;;;12.15;9.58;;;;;;;12.33;100.00;98056.70;1731192;81;21545;-68
2022/09/27 04:02:40;;;;;;;22.17;9.50;;;;;;;12.34;100.00;98056.23;1736348;81;21045;-64
2022/09/27 04:05:26;;;;;;;11.85;9.05;;;;;;;12.33;100.00;98046.28;1730400;81;21212;-66
2022/09/27 04:07:55;;;;;;;10.90;7.95;;;;;;;12.32;100.00;98048.52;1737901;81;21542;-64
2022/09/27 04:10:23;;;;;;;15.08;10.15;;;;;;;12.33;100.00;98049.36;1733388;81;20981;-64
2022/09/27 04:12:50;;;;;;;12.07;10.58;;;;;;;12.32;100.00;98052.44;1735028;82;20954;-64
2022/09/27 04:15:18;;;;;;;12.73;10.58;;;;;;;12.28;100.00;98057.50;1733213;81;21089;-64
2022/09/27 04:17:48;;;;;;;16.32;9.93;;;;;;;12.28;100.00;98060.10;1730307;81;21098;-64
2022/09/27 04:20:35;;;;;;;13.43;9.28;;;;;;;12.30;100.00;98053.02;1733036;81;21052;-64
2022/09/27 04:23:10;;;;;;;13.35;10.35;;;;;;;12.34;100.00;98047.95;1732668;82;20995;-64
2022/09/27 04:25:40;;;;;;;14.25;9.58;;;;;;;12.35;100.00;98048.78;1737416;81;20994;-64
2022/09/27 04:28:09;;;;;;;11.90;10.48;;;;;;;12.34;100.00;98032.77;1727639;82;21549;-64
2022/09/27 04:30:36;;;;;;;13.22;9.23;;;;;;;12.36;100.00;98034.80;1727645;82;22112;-64
2022/09/27 04:33:12;;;;;;;9.58;8.10;;;;;;;12.38;100.00;98027.23;1726574;82;21010;-64
2022/09/27 04:38:41;;;;;;;14.75;9.20;;;;;;;12.50;100.00;98029.42;1735553;81;21171;-65
2022/09/27 04:41:09;;;;;;;14.68;9.70;;;;;;;12.53;100.00;98031.81;1735471;81;21005;-64
2022/09/27 04:43:38;;;;;;;9.93;7.83;;;;;;;12.56;100.00;98022.47;1738246;82;21126;-65
2022/09/27 04:46:06;;;;;;;10.88;7.83;;;;;;;12.61;100.00;98019.03;1730910;82;21087;-65
2022/09/27 04:48:33;;;;;;;12.90;9.20;;;;;;;12.63;100.00;98020.23;1726437;81;20958;-65
2022/09/27 04:51:01;;;;;;;13.90;9.65;;;;;;;12.66;100.00;98017.41;1733620;81;21064;-64
2022/09/27 04:53:28;;;;;;;14.45;9.20;;;;;;;12.68;100.00;98015.05;1731201;81;21100;-64
2022/09/27 04:55:56;;;;;;;11.48;8.00;;;;;;;12.71;100.00;98004.39;1734660;82;21092;-64
2022/09/27 04:58:24;;;;;;;8.75;6.92;;;;;;;12.74;100.00;98002.87;1736307;81;21543;-64
2022/09/27 05:00:51;;;;;;;16.12;8.08;;;;;;;12.79;100.00;98000.40;1729316;81;21565;-67
2022/09/27 05:03:20;;;;;;;21.48;9.03;;;;;;;12.79;100.00;98000.40;1734678;80;21132;-65
2022/09/27 05:05:49;;;;;;;13.13;10.38;;;;;;;12.76;100.00;98001.45;1733801;81;20942;-64
2022/09/27 05:08:17;;;;;;;13.83;8.85;;;;;;;12.75;100.00;98001.09;1725918;81;21159;-65
2022/09/27 05:11:03;;;;;;;11.50;7.60;;;;;;;12.79;100.00;98002.50;1733379;81;21084;-65
2022/09/27 05:13:31;;;;;;;15.03;8.15;;;;;;;12.87;100.00;97999.34;1734315;81;21029;-66
2022/09/27 05:16:03;;;;;;;17.20;8.98;;;;;;;12.93;100.00;97994.98;1735471;81;21069;-65
2022/09/27 05:18:55;;;;;;;20.37;9.93;;;;;;;12.98;100.00;97994.17;1729579;81;21011;-66
2022/09/27 05:21:33;;;;;;;22.82;11.08;;;;;;;13.01;100.00;97993.45;1701887;82;21865;-65
2022/09/27 05:24:01;;;;;;;21.60;10.98;;;;;;;13.05;100.00;97992.28;1718065;82;21043;-69
2022/09/27 05:26:28;;;;;;;17.10;8.85;;;;;;;13.07;100.00;97989.08;1732950;82;21024;-65
2022/09/27 05:28:56;;;;;;;19.05;10.82;;;;;;;13.11;100.00;97987.91;1726995;81;21573;-67
2022/09/27 05:31:28;;;;;;;15.03;10.80;;;;;;;13.15;100.00;97997.69;1727473;81;21035;-66
2022/09/27 05:33:58;;;;;;;15.78;11.22;;;;;;;13.19;100.00;97997.79;1734137;81;21736;-68
2022/09/27 05:36:27;;;;;;;19.67;12.37;;;;;;;13.26;100.00;97995.08;1732173;81;22306;-69
2022/09/27 05:38:56;;;;;;;15.38;13.43;;;;;;;13.33;100.00;97994.16;1716998;82;21033;-70
2022/09/27 05:41:24;;;;;;;15.72;12.53;;;;;;;13.38;100.00;97998.56;1702252;82;21032;-66
2022/09/27 05:43:54;;;;;;;17.82;14.83;;;;;;;13.44;100.00;97998.91;1728607;81;21001;-70
2022/09/27 05:46:21;;;;;;;18.95;10.32;;;;;;;13.51;100.00;97999.28;1678790;83;21128;-66
2022/09/27 05:48:49;;;;;;;11.80;9.13;;;;;;;13.58;100.00;98002.27;1680871;84;21056;-67
2022/09/27 05:51:18;;;;;;;11.75;8.58;;;;;;;13.61;100.00;98001.53;1674021;84;21599;-67
2022/09/27 05:53:46;;;;;;;9.28;8.35;;;;;;;13.63;100.00;98001.41;1675572;85;21157;-68
2022/09/27 05:56:16;;;;;;;11.50;9.43;;;;;;;13.69;100.00;97993.94;1646187;86;21569;-65
2022/09/27 05:58:50;;;;;;;14.60;9.23;;;;;;;13.74;100.00;97985.75;1658265;85;21118;-66
2022/09/27 06:01:20;;;;;;;12.18;8.53;;;;;;;13.76;100.00;97983.38;1659632;85;21011;-67
2022/09/27 06:03:54;;;;;;;9.80;8.68;;;;;;;13.76;100.00;97983.38;1677048;84;21562;-67
2022/09/27 06:06:41;;;;;;;13.75;8.78;;;;;;;13.87;100.00;97985.14;1649743;85;21088;-70
2022/09/27 06:09:12;;;;;;;9.75;8.75;;;;;;;13.87;100.00;97985.14;1677149;84;21135;-68
2022/09/27 06:11:44;;;;;;;9.93;8.93;;;;;;;13.96;100.00;97987.05;1655152;85;21529;-67
2022/09/27 06:14:14;;;;;;;8.88;8.00;;;;;;;14.02;100.00;97983.09;1676221;83;21046;-66
2022/09/27 06:16:53;;;;;;;13.88;10.30;;;;;;;14.06;100.00;97995.81;1745599;80;21060;-70
2022/09/27 06:19:23;;;;;;;12.93;10.10;;;;;;;14.07;100.00;98000.56;1726461;81;21202;-67
2022/09/27 06:21:51;;;;;;;15.18;10.98;;;;;;;14.07;100.00;97999.26;1720029;82;20967;-69
2022/09/27 06:24:21;;;;;;;10.82;9.83;;;;;;;14.04;100.00;98006.03;1717015;82;21768;-70
2022/09/27 06:26:50;;;;;;;9.93;8.93;;;;;;;14.01;100.00;98006.27;1713644;82;21105;-68
2022/09/27 06:29:23;;;;;;;11.55;10.03;;;;;;;13.99;100.00;98010.30;1703761;81;21731;-71
2022/09/27 06:31:56;;;;;;;15.48;13.80;;;;;;;14.01;100.00;98011.49;1708978;82;21039;-75
2022/09/27 06:34:38;;;;;;;;;;;;;;;14.04;100.00;98006.86;1711232;82;21026;-70
2022/09/27 06:37:05;;;;;;;14.00;11.65;;;;;;;14.09;100.00;98015.66;1702884;82;21216;-70
2022/09/27 06:39:36;;;;;;;17.17;11.28;;;;;;;14.11;100.00;98022.91;1708808;82;21054;-70
2022/09/27 06:42:05;;;;;;;10.50;9.40;;;;;;;14.14;100.00;98015.66;1722282;82;21250;-71
2022/09/27 06:44:51;;;;;;;12.00;10.70;;;;;;;14.19;100.00;98016.58;1713798;82;20998;-70
2022/09/27 06:47:28;;;;;;;12.23;10.65;;;;;;;14.26;100.00;98016.94;1711787;83;22077;-71
2022/09/27 06:49:57;;;;;;;12.78;11.48;;;;;;;14.36;100.00;98010.87;1695936;82;21339;-71
2022/09/27 06:52:30;;;;;;;13.25;10.60;;;;;;;14.63;100.00;98001.28;1690187;82;21079;-69
2022/09/27 06:55:02;;;;;;;12.45;9.55;;;;;;;14.63;100.00;98001.28;1689972;83;21465;-67
2022/09/27 07:00:23;;;;;;;15.20;10.55;;;;;;;14.81;100.00;97997.16;1722769;81;21484;-65
2022/09/27 07:02:57;;;;;;;11.97;10.80;;;;;;;14.93;100.00;97992.73;1663088;82;22231;-69
2022/09/27 07:05:35;;;;;;;14.47;11.00;;;;;;;14.93;100.00;97992.73;1715297;82;20991;-70
2022/09/27 07:08:12;;;;;;;13.05;10.53;;;;;;;14.99;100.00;97994.81;1725716;81;21573;-68
2022/09/27 07:10:39;;;;;;;13.75;9.70;;;;;;;15.05;100.00;97994.31;1725177;82;21091;-67
2022/09/27 07:13:11;;;;;;;12.78;10.53;;;;;;;15.14;100.00;98001.91;1714078;82;22115;-67
2022/09/27 07:15:41;;;;;;;14.58;11.08;;;;;;;15.22;100.00;98001.23;1725540;82;21509;-69
2022/09/27 07:18:10;;;;;;;16.65;10.40;;;;;;;15.31;100.00;98000.48;1665186;85;21443;-70
2022/09/27 07:20:38;;;;;;;13.75;10.10;;;;;;;15.41;100.00;98003.98;1669613;84;21061;-67
2022/09/27 07:23:07;;;;;;;10.43;9.45;;;;;;;15.49;100.00;97993.69;1670699;83;21088;-67
2022/09/27 07:25:38;;;;;;;11.22;10.20;;;;;;;15.57;100.00;97993.09;1701846;81;21104;-68
2022/09/27 07:28:11;;;;;;;12.50;9.68;;;;;;;15.65;100.00;97988.00;1652029;83;21151;-70
2022/09/27 07:30:39;;;;;;;11.33;10.18;;;;;;;15.74;100.00;97984.13;1747211;80;22001;-70
2022/09/27 07:33:07;;;;;;;11.28;9.15;;;;;;;15.73;100.00;97985.09;1713622;80;21089;-67
2022/09/27 07:35:38;;;;;;;26.52;12.30;;;;;;;15.75;100.00;97986.27;1712948;82;21063;-68
2022/09/27 07:38:04;;;;;;;23.18;12.88;;;;;;;15.75;100.00;97982.33;1710902;82;21140;-67
2022/09/27 07:40:32;;;;;;;25.62;14.55;;;;;;;15.71;100.00;97977.00;1716779;81;21546;-69
2022/09/27 07:42:59;;;;;;;20.60;12.88;;;;;;;15.67;100.00;97974.28;1723565;81;21027;-68
2022/09/27 07:45:27;;;;;;;13.15;11.70;;;;;;;15.66;100.00;97972.14;1717929;82;21022;-68
2022/09/27 07:48:07;;;;;;;12.75;9.98;;;;;;;15.71;100.00;97969.97;1719793;82;21474;-70
2022/09/27 07:50:38;;;;;;;12.73;10.23;;;;;;;15.72;100.00;97966.39;1694110;82;21069;-68
2022/09/27 07:53:23;;;;;;;12.98;10.35;;;;;;;15.67;100.00;97967.73;1662264;85;21120;-66
2022/09/27 07:55:53;;;;;;;11.50;10.40;;;;;;;15.62;100.00;97964.67;1694126;82;21147;-68
2022/09/27 07:58:22;;;;;;;12.82;10.90;;;;;;;15.59;100.00;97967.58;1726125;82;21336;-68
2022/09/27 08:00:55;;;;;;;12.47;11.38;;;;;;;15.54;100.00;97969.73;1708395;80;21090;-67
2022/09/27 08:03:22;;;;;;;14.63;10.82;;;;;;;15.56;100.00;97965.22;1718151;82;20952;-68
2022/09/27 08:05:52;;;;;;;11.50;10.40;;;;;;;15.62;100.00;97966.81;1717587;82;21134;-70
2022/09/27 08:08:21;;;;;;;15.38;12.60;;;;;;;15.68;100.00;97967.61;1721139;80;21113;-69
2022/09/27 08:10:51;;;;;;;12.15;10.95;;;;;;;15.73;100.00;97969.36;1720546;81;21952;-69
2022/09/27 08:13:19;;;;;;;12.33;11.10;;;;;;;15.77;100.00;97973.38;1693970;82;21494;-68
2022/09/27 08:15:51;;;;;;;12.45;11.15;;;;;;;15.78;100.00;97974.21;1708288;82;21089;-70
2022/09/27 08:18:20;;;;;;;12.60;11.40;;;;;;;15.79;100.00;97976.67;1723579;82;21206;-70
2022/09/27 08:20:51;;;;;;;10.95;9.40;;;;;;;15.82;100.00;97967.72;1712453;82;21082;-70
2022/09/27 08:23:26;;;;;;;11.60;10.48;;;;;;;15.88;100.00;97966.36;1703485;82;21226;-68
2022/09/27 08:26:07;;;;;;;11.70;10.60;;;;;;;15.92;100.00;97971.22;1705902;82;21592;-68
2022/09/27 08:28:36;;;;;;;15.05;11.15;;;;;;;15.98;100.00;97966.76;1711775;82;21014;-69
2022/09/27 08:31:07;;;;;;;11.57;10.40;;;;;;;16.04;100.00;97969.30;1710000;82;21133;-68
2022/09/27 08:33:39;;;;;;;11.37;9.97;;;;;;;16.19;100.00;97975.82;1705892;80;21039;-69
2022/09/27 08:36:16;;;;;;;13.55;10.00;;;;;;;16.19;100.00;97975.82;1729456;81;21206;-69
2022/09/27 08:38:50;;;;;;;13.00;10.20;;;;;;;16.29;100.00;97979.79;1725622;82;21030;-70
2022/09/27 08:41:42;;;;;;;10.78;9.78;;;;;;;16.31;100.00;97984.42;1691820;83;21055;-67
2022/09/27 08:44:54;;;;;;;12.10;10.85;;;;;;;16.37;100.00;97982.58;1704578;82;21202;-68
2022/09/27 08:47:30;;;;;;;14.20;10.63;;;;;;;16.47;100.00;97992.11;1714330;82;22243;-69
2022/09/27 08:50:10;;;;;;;9.75;8.78;;;;;;;16.48;100.00;97989.83;1711660;82;21064;-68
2022/09/27 08:52:49;;;;;;;11.28;10.10;;;;;;;16.51;100.00;97988.25;1714807;82;21482;-67
2022/09/27 08:55:36;;;;;;;12.05;10.85;;;;;;;16.61;100.00;97979.54;1714839;82;21088;-68
2022/09/27 08:58:27;;;;;;;11.88;10.68;;;;;;;16.69;100.00;97981.03;1699919;83;21140;-67
2022/09/27 09:00:58;;;;;;;11.53;10.32;;;;;;;16.76;99.56;97984.30;1700041;82;21005;-68
2022/09/27 09:03:29;;;;;;;14.35;12.43;;;;;;;16.81;98.18;97987.31;1694203;83;21054;-69
2022/09/27 09:06:27;;;;;;;12.60;9.85;;;;;;;16.74;97.86;97994.59;1725316;82;20997;-67
2022/09/27 09:09:16;;;;;;;11.68;10.35;;;;;;;16.70;97.65;97986.63;1741796;82;21199;-68
2022/09/27 09:15:30;;;;;;;11.50;10.28;;;;;;;16.78;97.26;97999.91;1721614;81;21053;-67
2022/09/27 09:18:10;;;;;;;12.18;11.08;;;;;;;16.84;97.24;97998.03;1700938;82;21104;-67
2022/09/27 09:20:55;;;;;;;12.88;11.68;;;;;;;16.87;96.86;97995.95;1696626;82;22453;-70
2022/09/27 09:23:28;;;;;;;15.32;10.88;;;;;;;16.95;96.81;97996.59;1700554;83;21021;-67
2022/09/27 09:26:23;;;;;;;12.13;10.93;;;;;;;17.06;96.85;97995.59;1670138;84;21764;-67
2022/09/27 09:29:28;;;;;;;13.05;11.35;;;;;;;17.18;96.57;97986.61;1675062;85;21106;-68
2022/09/27 09:32:38;;;;;;;15.55;13.10;;;;;;;17.33;96.47;97989.13;1681898;83;22130;-67
2022/09/27 09:35:16;;;;;;;13.85;12.50;;;;;;;17.46;96.64;97981.76;1656809;85;21042;-68
2022/09/27 09:37:48;;;;;;;12.68;10.78;;;;;;;17.58;96.44;97974.55;1644564;85;21069;-67
2022/09/27 09:40:36;;;;;;;12.58;9.75;;;;;;;17.70;95.98;97972.09;1650935;84;21254;-67
2022/09/27 09:43:20;;;;;;;13.75;10.68;;;;;;;17.81;95.29;97973.70;1669532;84;21007;-69
2022/09/27 09:46:09;;;;;;;10.13;9.13;;;;;;;17.88;95.12;97971.67;1676768;83;21060;-67
2022/09/27 09:48:47;;;;;;;11.93;10.82;;;;;;;18.03;94.97;97972.49;1663681;84;21137;-66
2022/09/27 09:51:22;;;;;;;11.97;10.95;;;;;;;18.09;94.56;97978.00;1667606;85;21121;-71
2022/09/27 09:53:57;;;;;;;12.35;10.45;;;;;;;18.15;93.87;97975.28;1688681;82;21300;-69
2022/09/27 09:56:37;;;;;;;10.38;9.28;;;;;;;18.19;92.81;97976.13;1681496;82;21062;-69
2022/09/27 09:59:22;;;;;;;10.48;8.78;;;;;;;18.28;92.28;97976.23;1674020;85;21054;-67
2022/09/27 10:01:51;;;;;;;11.90;9.03;;;;;;;18.26;91.61;97973.75;1655387;85;21613;-69
2022/09/27 10:04:26;;;;;;;9.80;8.98;;;;;;;18.25;92.07;97974.72;1720630;82;20997;-67
2022/09/27 10:06:55;;;;;;;13.40;10.13;;;;;;;18.25;91.48;97960.25;1715771;82;21296;-69
2022/09/27 10:09:25;;;;;;;11.60;10.13;;;;;;;18.29;91.54;97970.82;1735518;82;21468;-69
2022/09/27 10:11:56;;;;;;;9.38;8.45;;;;;;;18.36;91.44;97969.75;1681508;81;21024;-70
2022/09/27 10:14:29;;;;;;;9.45;8.30;;;;;;;18.41;90.96;97971.42;1727516;81;21074;-71
2022/09/27 10:17:10;;;;;;;10.40;8.73;;;;;;;18.33;90.09;97964.78;1682480;84;21054;-71
2022/09/27 10:19:40;;;;;;;11.60;9.23;;;;;;;18.20;90.61;97973.84;1736559;80;21238;-69
2022/09/27 10:22:30;;;;;;;10.48;9.23;;;;;;;18.13;90.96;97968.84;1709705;82;21041;-70
2022/09/27 10:25:08;;;;;;;10.80;9.80;;;;;;;18.11;90.97;97955.01;1653667;84;21050;-67
2022/09/27 10:27:55;;;;;;;11.40;8.98;;;;;;;18.13;91.05;97953.06;1685427;83;21252;-67
2022/09/27 10:30:33;;;;;;;11.97;10.03;;;;;;;18.17;90.42;97949.16;1702005;82;21253;-74
2022/09/27 10:33:17;;;;;;;14.55;10.35;;;;;;;18.17;90.33;97941.76;1729331;82;21470;-67
2022/09/27 10:35:52;;;;;;;12.18;9.65;;;;;;;18.24;90.08;97942.80;1703530;82;21056;-69
2022/09/27 10:38:33;;;;;;;9.98;8.90;;;;;;;18.32;90.02;97939.44;1729350;82;21097;-73
2022/09/27 10:41:32;;;;;;;17.85;10.05;;;;;;;18.38;89.65;97933.09;1662402;85;20987;-70
2022/09/27 10:44:24;;;;;;;11.55;9.10;;;;;;;18.46;89.30;97933.16;1632576;87;21070;-69
2022/09/27 10:46:55;;;;;;;13.58;9.58;;;;;;;18.55;87.96;97930.13;1698151;83;21200;-69
2022/09/27 10:49:38;;;;;;;11.33;9.00;;;;;;;18.51;87.52;97927.45;1683553;84;21036;-70
2022/09/27 10:52:17;;;;;;;13.80;8.53;;;;;;;18.46;87.34;97923.11;1706245;81;20988;-70
2022/09/27 10:55:05;;;;;;;13.72;9.23;;;;;;;18.44;87.77;97923.27;1717978;82;21048;-71
2022/09/27 10:57:35;;;;;;;11.57;8.85;;;;;;;18.53;87.89;97925.00;1727637;82;21171;-71
2022/09/27 11:00:10;;;;;;;12.75;8.48;;;;;;;18.69;86.63;97920.88;1728414;82;21864;-72
2022/09/27 11:02:41;;;;;;;14.90;9.43;;;;;;;18.83;86.07;97910.62;1727467;81;21654;-71
2022/09/27 11:05:14;;;;;;;14.38;8.45;;;;;;;18.99;85.90;97913.03;1726951;81;21143;-72
2022/09/27 11:07:51;;;;;;;10.28;8.45;;;;;;;19.10;84.08;97916.74;1728739;81;21095;-72
2022/09/27 11:10:32;;;;;;;9.83;7.85;;;;;;;19.09;81.17;97924.31;1706072;82;21543;-71
2022/09/27 11:13:20;;;;;;;9.93;7.87;;;;;;;18.99;81.17;97922.25;1729450;81;21175;-73
2022/09/27 11:16:08;;;;;;;12.30;7.92;;;;;;;18.95;82.07;97924.39;1710068;80;28246;-72
2022/09/27 11:19:05;;;;;;;28.20;9.65;;;;;;;18.96;82.15;97921.27;1736279;81;21117;-71
2022/09/27 11:22:00;;;;;;;12.58;7.60;;;;;;;18.96;82.39;97923.41;1729460;82;21485;-73
2022/09/27 11:24:49;;;;;;;14.10;8.20;;;;;;;18.91;81.93;97921.23;1711500;81;21427;-69
2022/09/27 11:27:47;;;;;;;22.82;7.17;;;;;;;18.88;81.24;97912.80;1733333;80;21100;-71
2022/09/27 11:30:20;;;;;;;13.80;8.40;;;;;;;18.83;81.25;97913.74;1725601;81;21325;-68
2022/09/27 11:33:15;;;;;;;12.18;7.65;;;;;;;18.81;82.31;97917.02;1704883;82;21035;-72
2022/09/27 11:36:28;;;;;;;10.90;7.97;;;;;;;18.83;82.72;97917.69;1722010;82;21516;-72
2022/09/27 11:39:01;;;;;;;8.73;7.37;;;;;;;18.86;82.78;97918.22;1722450;81;20990;-72
2022/09/27 11:42:19;;;;;;;13.15;7.95;;;;;;;18.92;82.59;97912.84;1720981;81;21245;-71
2022/09/27 11:45:27;;;;;;;8.48;6.80;;;;;;;19.10;82.02;97912.79;1726614;81;21095;-70
2022/09/27 11:48:36;;;;;;;12.45;8.10;;;;;;;19.20;80.13;97906.91;1730929;82;21043;-71
2022/09/27 11:51:30;;;;;;;13.65;7.87;;;;;;;19.22;80.66;97898.36;1713529;82;21810;-70
2022/09/27 11:54:17;;;;;;;12.47;7.28;;;;;;;19.28;79.66;97903.84;1693479;82;21091;-69
2022/09/27 11:57:05;;;;;;;7.92;7.20;;;;;;;19.33;79.30;97909.14;1726252;81;22266;-70
2022/09/27 11:59:43;;;;;;;11.90;7.35;;;;;;;19.32;78.87;97907.48;1709439;82;21058;-69
2022/09/27 12:03:01;;;;;;;9.13;6.78;;;;;;;19.31;79.11;97907.98;1719686;82;21584;-69
2022/09/27 12:05:44;;;;;;;7.10;6.40;;;;;;;19.27;76.80;97914.05;1722060;81;21186;-69
2022/09/27 12:08:41;;;;;;;8.45;6.33;;;;;;;19.16;76.78;97914.33;1662467;81;21044;-68
2022/09/27 12:11:21;;;;;;;10.85;6.33;;;;;;;19.06;77.50;97916.71;1728623;81;21220;-69
2022/09/27 12:13:54;;;;;;;9.08;6.95;;;;;;;19.02;77.66;97914.04;1730187;81;21466;-71